createdAt,value
2022-10-22T00:00:03.286Z,52.20
2022-10-22T00:02:55.296Z,52.25
2022-10-22T00:05:25.334Z,50.17
2022-10-22T00:07:55.686Z,49.28
2022-10-22T00:10:27.044Z,53.38
2022-10-22T00:12:57.547Z,54.00
2022-10-22T00:15:27.687Z,57.83
2022-10-22T00:17:57.896Z,54.42
2022-10-22T00:20:27.787Z,57.33
2022-10-22T00:22:58.109Z,49.03
2022-10-22T00:25:29.629Z,48.60
2022-10-22T00:28:02.317Z,48.47
2022-10-22T00:30:32.317Z,49.13
2022-10-22T00:33:02.516Z,49.60
2022-10-22T00:35:33.977Z,48.53
2022-10-22T00:38:04.270Z,47.13
2022-10-22T00:40:35.916Z,47.20
2022-10-22T00:43:06.317Z,49.22
2022-10-22T00:45:36.267Z,50.35
2022-10-22T00:48:10.018Z,42.70
2022-10-22T00:50:43.399Z,47.28
2022-10-22T00:53:16.635Z,49.13
2022-10-22T00:55:50.581Z,51.25
2022-10-22T00:58:22.713Z,49.10
2022-10-22T01:00:52.951Z,48.58
2022-10-22T01:03:23.504Z,46.13
2022-10-22T01:05:58.266Z,47.08
2022-10-22T01:08:38.529Z,46.03
2022-10-22T01:11:20.036Z,42.50
2022-10-22T01:16:35.186Z,48.22
2022-10-22T01:19:27.244Z,47.33
2022-10-22T01:22:03.199Z,44.90
2022-10-22T01:24:43.764Z,42.67
2022-10-22T01:27:25.805Z,43.63
2022-10-22T01:30:00.907Z,45.50
2022-10-22T01:32:34.123Z,45.45
2022-10-22T01:35:08.554Z,47.80
2022-10-22T01:37:44.525Z,43.75
2022-10-22T01:40:17.774Z,43.88
2022-10-22T01:43:00.569Z,45.83
2022-10-22T01:45:35.345Z,49.05
2022-10-22T01:48:14.664Z,45.70
2022-10-22T01:51:09.456Z,44.30
2022-10-22T01:53:47.655Z,43.78
2022-10-22T01:56:31.725Z,42.30
2022-10-22T01:59:10.034Z,44.30
2022-10-22T02:01:51.236Z,48.35
2022-10-22T02:04:24.845Z,46.20
2022-10-22T02:06:58.227Z,39.85
2022-10-22T02:09:30.894Z,43.83
2022-10-22T02:12:03.117Z,45.00
2022-10-22T02:14:35.736Z,44.47
2022-10-22T02:17:12.077Z,40.78
2022-10-22T02:19:48.915Z,43.03
2022-10-22T02:22:19.594Z,44.63
2022-10-22T02:24:50.614Z,44.78
2022-10-22T02:27:27.157Z,52.03
2022-10-22T02:30:03.227Z,40.00
2022-10-22T02:32:41.675Z,43.92
2022-10-22T02:35:15.344Z,41.03
2022-10-22T02:37:45.904Z,41.85
2022-10-22T02:40:16.586Z,43.15
2022-10-22T02:42:49.004Z,45.92
2022-10-22T02:45:20.084Z,43.08
2022-10-22T02:47:52.028Z,42.13
2022-10-22T02:50:21.904Z,44.70
2022-10-22T02:52:52.044Z,49.70
2022-10-22T02:55:21.967Z,45.15
2022-10-22T02:57:52.274Z,42.85
2022-10-22T03:00:22.214Z,43.70
2022-10-22T03:02:54.147Z,43.95
2022-10-22T03:05:24.045Z,43.38
2022-10-22T03:07:54.134Z,42.70
2022-10-22T03:10:23.984Z,44.90
2022-10-22T03:12:54.236Z,43.72
2022-10-22T03:15:24.221Z,46.88
2022-10-22T03:17:56.073Z,49.47
2022-10-22T03:22:57.291Z,41.05
2022-10-22T03:30:33.532Z,43.90
2022-10-22T03:33:05.392Z,42.13
2022-10-22T03:38:10.250Z,42.85
2022-10-22T03:40:40.530Z,41.65
2022-10-22T03:43:10.980Z,40.72
2022-10-22T03:45:40.873Z,46.00
2022-10-22T03:48:12.700Z,46.88
2022-10-22T03:53:12.750Z,39.17
2022-10-22T03:55:43.590Z,39.03
2022-10-22T03:58:13.870Z,42.20
2022-10-22T04:00:43.914Z,57.10
2022-10-22T04:03:15.661Z,37.53
2022-10-22T04:05:45.754Z,39.90
2022-10-22T04:08:15.910Z,45.08
2022-10-22T04:10:52.530Z,42.67
2022-10-22T04:13:22.790Z,53.20
2022-10-22T04:15:52.901Z,42.47
2022-10-22T04:18:25.841Z,40.17
2022-10-22T04:20:55.810Z,43.05
2022-10-22T04:23:25.980Z,40.72
2022-10-22T04:26:00.510Z,41.22
2022-10-22T04:28:30.861Z,54.47
2022-10-22T04:31:00.980Z,47.65
2022-10-22T04:33:32.711Z,43.90
2022-10-22T04:36:03.320Z,45.60
2022-10-22T04:38:33.520Z,50.50
2022-10-22T04:41:11.782Z,45.70
2022-10-22T04:43:42.240Z,48.35
2022-10-22T04:46:13.420Z,43.70
2022-10-22T04:48:46.080Z,44.67
2022-10-22T04:51:17.951Z,49.25
2022-10-22T04:53:48.661Z,46.30
2022-10-22T04:56:21.441Z,43.85
2022-10-22T04:58:54.592Z,43.70
2022-10-22T05:01:26.578Z,46.30
2022-10-22T05:03:59.802Z,37.97
2022-10-22T05:06:30.391Z,43.42
2022-10-22T05:09:02.898Z,44.13
2022-10-22T05:11:35.318Z,39.35
2022-10-22T05:14:08.109Z,44.75
2022-10-22T05:16:38.868Z,42.95
2022-10-22T05:19:10.879Z,42.00
2022-10-22T05:24:10.986Z,44.30
2022-10-22T05:26:40.982Z,47.63
2022-10-22T05:29:11.461Z,48.47
2022-10-22T05:31:41.871Z,43.28
2022-10-22T05:34:13.861Z,48.25
2022-10-22T05:39:13.954Z,48.58
2022-10-22T05:41:45.350Z,43.75
2022-10-22T05:44:16.270Z,42.65
2022-10-22T05:46:46.401Z,42.10
2022-10-22T05:49:18.350Z,40.63
2022-10-22T05:54:20.440Z,40.20
2022-10-22T05:56:51.041Z,40.63
2022-10-22T05:59:21.635Z,47.00
2022-10-22T06:01:52.024Z,38.13
2022-10-22T06:04:24.106Z,40.50
2022-10-22T06:06:55.768Z,49.75
2022-10-22T06:09:31.831Z,40.95
2022-10-22T06:12:03.115Z,47.25
2022-10-22T06:14:34.027Z,45.97
2022-10-22T06:17:05.187Z,42.53
2022-10-22T06:22:07.086Z,44.80
2022-10-22T06:24:40.424Z,47.28
2022-10-22T06:27:13.009Z,43.78
2022-10-22T06:29:43.307Z,42.05
2022-10-22T06:32:13.634Z,41.33
2022-10-22T06:34:46.565Z,46.47
2022-10-22T06:37:16.877Z,41.40
2022-10-22T06:39:47.255Z,47.73
2022-10-22T06:42:17.717Z,46.78
2022-10-22T06:44:51.712Z,48.80
2022-10-22T06:47:21.875Z,43.05
2022-10-22T06:49:53.625Z,42.97
2022-10-22T06:54:53.766Z,45.85
2022-10-22T06:57:24.305Z,46.20
2022-10-22T06:59:54.566Z,45.50
2022-10-22T07:02:24.523Z,48.13
2022-10-22T07:04:56.433Z,45.03
2022-10-22T07:09:56.763Z,45.92
2022-10-22T07:12:27.243Z,41.03
2022-10-22T07:14:57.773Z,50.90
2022-10-22T07:17:27.772Z,50.35
2022-10-22T07:19:59.603Z,47.22
2022-10-22T07:25:05.163Z,49.50
2022-10-22T07:27:38.098Z,50.67
2022-10-22T07:30:09.963Z,48.00
2022-10-22T07:32:40.425Z,51.80
2022-10-22T07:35:12.814Z,47.17
2022-10-22T07:37:43.250Z,50.13
2022-10-22T07:40:14.873Z,44.40
2022-10-22T07:42:45.335Z,49.67
2022-10-22T07:45:16.004Z,46.40
2022-10-22T07:47:46.216Z,48.63
2022-10-22T07:50:18.654Z,44.35
2022-10-22T07:52:49.073Z,42.92
2022-10-22T07:55:19.553Z,45.53
2022-10-22T07:57:49.905Z,45.63
2022-10-22T08:00:23.217Z,46.88
2022-10-22T08:02:56.224Z,46.50
2022-10-22T08:05:28.505Z,46.35
2022-10-22T08:07:58.835Z,45.38
2022-10-22T08:10:29.962Z,47.83
2022-10-22T08:13:00.296Z,51.27
2022-10-22T08:15:31.671Z,53.53
2022-10-22T08:18:02.149Z,50.13
2022-10-22T08:20:34.466Z,51.35
2022-10-22T08:23:04.885Z,54.70
2022-10-22T08:25:36.186Z,51.33
2022-10-22T08:28:06.715Z,52.53
2022-10-22T08:30:39.053Z,45.70
2022-10-22T08:33:09.187Z,49.08
2022-10-22T08:35:40.973Z,49.58
2022-10-22T08:38:11.093Z,47.53
2022-10-22T08:40:42.905Z,47.97
2022-10-22T08:46:17.813Z,49.28
2022-10-22T08:48:51.453Z,50.25
2022-10-22T08:51:26.534Z,48.38
2022-10-22T08:54:19.027Z,59.45
2022-10-22T08:57:01.945Z,63.28
2022-10-22T08:59:40.743Z,67.68
2022-10-22T09:02:24.499Z,64.25
2022-10-22T09:05:03.894Z,53.60
2022-10-22T09:07:49.502Z,56.63
2022-10-22T09:10:26.561Z,51.65
2022-10-22T09:12:58.985Z,57.33
2022-10-22T09:15:31.884Z,48.37
2022-10-22T09:18:15.962Z,49.38
2022-10-22T09:20:52.170Z,50.17
2022-10-22T09:23:35.183Z,51.65
2022-10-22T09:26:08.372Z,51.55
2022-10-22T09:28:39.491Z,53.28
2022-10-22T09:31:13.900Z,52.10
2022-10-22T09:33:45.930Z,51.00
2022-10-22T09:36:20.602Z,51.88
2022-10-22T09:38:54.303Z,53.70
2022-10-22T09:41:31.078Z,52.60
2022-10-22T09:44:02.301Z,51.15
2022-10-22T09:46:44.246Z,53.10
2022-10-22T09:49:18.510Z,54.55
2022-10-22T09:51:54.930Z,50.88
2022-10-22T09:54:39.942Z,49.50
2022-10-22T09:57:18.272Z,63.22
2022-10-22T09:59:54.519Z,60.33
2022-10-22T10:02:43.075Z,54.70
2022-10-22T10:05:22.469Z,55.50
2022-10-22T10:07:52.701Z,54.15
2022-10-22T10:10:43.743Z,45.77
2022-10-22T10:13:37.074Z,59.47
2022-10-22T10:16:15.172Z,54.67
2022-10-22T10:19:09.849Z,42.80
2022-10-22T10:21:49.754Z,47.53
2022-10-22T10:24:30.641Z,48.35
2022-10-22T10:27:11.082Z,47.60
2022-10-22T10:29:51.431Z,44.30
2022-10-22T10:32:48.489Z,48.85
2022-10-22T10:35:25.661Z,47.13
2022-10-22T10:38:08.190Z,47.67
2022-10-22T10:40:46.771Z,53.30
2022-10-22T10:43:24.078Z,47.45
2022-10-22T10:46:04.779Z,46.83
2022-10-22T10:48:58.010Z,42.20
2022-10-22T10:51:48.000Z,34.72
2022-10-22T10:54:48.285Z,35.38
2022-10-22T10:57:27.092Z,34.83
2022-10-22T11:00:09.020Z,37.22
2022-10-22T11:03:06.620Z,30.52
2022-10-22T11:05:44.058Z,32.80
2022-10-22T11:08:21.650Z,26.98
2022-10-22T11:10:56.522Z,28.42
2022-10-22T11:13:33.310Z,26.83
2022-10-22T11:16:12.110Z,26.85
2022-10-22T11:18:47.462Z,25.55
2022-10-22T11:21:26.841Z,27.38
2022-10-22T11:24:03.672Z,27.90
2022-10-22T11:26:44.980Z,23.63
2022-10-22T11:29:20.422Z,26.40
2022-10-22T11:31:54.853Z,21.80
2022-10-22T11:34:33.737Z,22.48
2022-10-22T11:37:06.862Z,22.45
2022-10-22T11:39:42.682Z,23.83
2022-10-22T11:42:20.975Z,23.15
2022-10-22T11:45:03.074Z,26.40
2022-10-22T11:47:53.908Z,25.08
2022-10-22T11:50:26.924Z,20.20
2022-10-22T11:53:06.714Z,21.33
2022-10-22T11:55:49.590Z,20.67
2022-10-22T11:58:33.190Z,22.05
2022-10-22T12:04:24.233Z,21.20
2022-10-22T12:07:01.675Z,24.70
2022-10-22T12:09:34.683Z,26.48
2022-10-22T12:12:12.954Z,24.75
2022-10-22T12:14:56.262Z,29.63
2022-10-22T12:17:29.727Z,30.02
2022-10-22T12:20:09.171Z,33.58
2022-10-22T12:22:41.073Z,33.63
2022-10-22T12:25:21.811Z,32.65
2022-10-22T12:27:55.253Z,32.00
2022-10-22T12:30:28.194Z,32.42
2022-10-22T12:33:01.742Z,31.20
2022-10-22T12:35:36.090Z,37.00
2022-10-22T12:38:14.910Z,33.97
2022-10-22T12:40:48.386Z,33.40
2022-10-22T12:43:21.054Z,34.60
2022-10-22T12:45:52.443Z,34.15
2022-10-22T12:48:25.972Z,42.58
2022-10-22T12:51:00.392Z,38.13
2022-10-22T12:53:36.530Z,40.72
2022-10-22T12:56:10.042Z,41.30
2022-10-22T12:58:43.212Z,44.45
2022-10-22T13:01:15.226Z,44.80
2022-10-22T13:03:50.094Z,37.80
2022-10-22T13:06:29.994Z,37.88
2022-10-22T13:09:15.550Z,39.50
2022-10-22T13:11:58.412Z,42.45
2022-10-22T13:14:34.521Z,43.25
2022-10-22T13:17:11.563Z,39.25
2022-10-22T13:19:50.822Z,40.47
2022-10-22T13:22:31.985Z,45.05
2022-10-22T13:25:20.734Z,46.53
2022-10-22T13:27:53.012Z,43.90
2022-10-22T13:30:26.763Z,44.72
2022-10-22T13:32:59.072Z,47.90
2022-10-22T13:35:32.402Z,42.38
2022-10-22T13:38:06.062Z,48.78
2022-10-22T13:40:36.264Z,52.03
2022-10-22T13:43:06.599Z,46.65
2022-10-22T13:45:36.770Z,53.88
2022-10-22T13:48:07.612Z,54.67
2022-10-22T13:50:37.732Z,44.88
2022-10-22T13:53:18.913Z,46.92
2022-10-22T13:55:50.592Z,48.42
2022-10-22T13:58:24.893Z,45.60
2022-10-22T14:00:57.773Z,49.85
2022-10-22T14:03:31.135Z,49.70
2022-10-22T14:06:01.683Z,51.22
2022-10-22T14:08:33.602Z,58.30
2022-10-22T14:11:03.645Z,50.60
2022-10-22T14:13:34.044Z,58.55
2022-10-22T14:16:06.042Z,58.97
2022-10-22T14:18:37.444Z,52.25
2022-10-22T14:21:08.903Z,51.28
2022-10-22T14:23:43.502Z,54.38
2022-10-22T14:26:23.664Z,55.47
2022-10-22T14:29:10.603Z,58.20
2022-10-22T14:31:43.218Z,54.50
2022-10-22T14:34:16.264Z,52.88
2022-10-22T14:36:46.294Z,55.78
2022-10-22T14:39:18.882Z,57.17
2022-10-22T14:41:49.744Z,56.20
2022-10-22T14:44:20.000Z,50.17
2022-10-22T14:46:50.013Z,54.35
2022-10-22T14:49:20.284Z,53.90
2022-10-22T14:51:50.283Z,56.75
2022-10-22T14:54:22.073Z,54.67
2022-10-22T14:56:52.285Z,49.05
2022-10-22T14:59:22.672Z,49.17
2022-10-22T15:01:52.751Z,50.40
2022-10-22T15:04:23.543Z,52.88
2022-10-22T15:06:56.581Z,61.17
2022-10-22T15:09:28.934Z,58.65
2022-10-22T15:12:00.784Z,51.83
2022-10-22T15:14:31.315Z,44.30
2022-10-22T15:17:02.053Z,47.28
2022-10-22T15:19:32.563Z,44.20
2022-10-22T15:22:03.066Z,43.15
2022-10-22T15:24:35.272Z,46.50
2022-10-22T15:27:05.352Z,43.47
2022-10-22T15:29:35.752Z,44.38
2022-10-22T15:32:06.046Z,46.88
2022-10-22T15:34:37.891Z,43.07
2022-10-22T15:37:10.262Z,46.97
2022-10-22T15:39:43.606Z,42.78
2022-10-22T15:42:14.794Z,47.90
2022-10-22T15:44:45.342Z,47.63
2022-10-22T15:47:15.359Z,47.17
2022-10-22T15:49:46.372Z,44.58
2022-10-22T15:52:16.433Z,41.58
2022-10-22T15:54:48.186Z,44.45
2022-10-22T15:57:18.187Z,50.20
2022-10-22T15:59:50.389Z,38.33
2022-10-22T16:02:20.403Z,38.10
2022-10-22T16:04:50.600Z,42.95
2022-10-22T16:07:23.862Z,35.92
2022-10-22T16:10:00.445Z,42.55
2022-10-22T16:12:30.383Z,42.40
2022-10-22T16:15:00.872Z,44.78
2022-10-22T16:17:30.844Z,39.92
2022-10-22T16:20:01.344Z,37.65
2022-10-22T16:22:31.443Z,37.67
2022-10-22T16:25:03.175Z,39.00
2022-10-22T16:30:03.039Z,39.42
2022-10-22T16:32:33.010Z,48.28
2022-10-22T16:35:03.265Z,46.75
2022-10-22T16:37:33.383Z,40.75
2022-10-22T16:40:08.156Z,47.10
2022-10-22T16:42:38.413Z,42.97
2022-10-22T16:45:09.896Z,51.80
2022-10-22T16:47:40.634Z,46.25
2022-10-22T16:50:11.794Z,46.67
2022-10-22T16:52:41.883Z,42.40
2022-10-22T16:55:13.831Z,48.97
2022-10-22T16:57:44.425Z,52.22
2022-10-22T17:00:15.904Z,49.45
2022-10-22T17:02:45.862Z,45.15
2022-10-22T17:05:16.324Z,48.20
2022-10-22T17:07:46.337Z,42.45
2022-10-22T17:10:19.917Z,42.47
2022-10-22T17:12:50.214Z,42.13
2022-10-22T17:15:20.582Z,40.90
2022-10-22T17:17:54.033Z,40.70
2022-10-22T17:20:24.453Z,45.53
2022-10-22T17:22:54.572Z,41.63
2022-10-22T17:25:37.925Z,50.47
2022-10-22T17:28:07.927Z,44.25
2022-10-22T17:30:40.935Z,42.22
2022-10-22T17:33:11.273Z,47.63
2022-10-22T17:35:43.202Z,42.93
2022-10-22T17:38:14.594Z,46.25
2022-10-22T17:40:46.343Z,43.35
2022-10-22T17:43:16.491Z,39.55
2022-10-22T17:45:47.634Z,47.10
2022-10-22T17:48:19.521Z,41.60
2022-10-22T17:50:50.719Z,45.80
2022-10-22T17:53:22.634Z,45.13
2022-10-22T17:56:02.336Z,43.43
2022-10-22T17:58:32.992Z,42.63
2022-10-22T18:01:03.970Z,42.90
2022-10-22T18:03:34.594Z,40.40
2022-10-22T18:06:10.315Z,38.72
2022-10-22T18:08:40.512Z,35.00
2022-10-22T18:11:14.721Z,37.05
2022-10-22T18:13:45.265Z,34.80
2022-10-22T18:16:15.763Z,30.92
2022-10-22T18:18:48.562Z,32.28
2022-10-22T18:21:19.304Z,34.30
2022-10-22T18:23:50.763Z,34.40
2022-10-22T18:26:25.989Z,31.73
2022-10-22T18:28:58.220Z,30.42
2022-10-22T18:31:31.008Z,33.75
2022-10-22T18:34:01.223Z,35.50
2022-10-22T18:36:31.753Z,37.95
2022-10-22T18:39:03.819Z,37.45
2022-10-22T18:41:36.152Z,35.33
2022-10-22T18:44:07.312Z,34.92
2022-10-22T18:46:39.333Z,30.73
2022-10-22T18:49:09.825Z,32.95
2022-10-22T18:51:42.546Z,31.42
2022-10-22T18:54:24.449Z,30.80
2022-10-22T18:57:06.812Z,26.63
2022-10-22T19:00:08.552Z,28.85
2022-10-22T19:02:56.034Z,32.75
2022-10-22T19:05:37.219Z,29.55
2022-10-22T19:08:59.905Z,31.67
2022-10-22T19:11:39.516Z,29.67
2022-10-22T19:14:25.313Z,27.98
2022-10-22T19:20:47.645Z,31.15
2022-10-22T19:23:27.795Z,25.65
2022-10-22T19:26:20.345Z,22.00
2022-10-22T19:29:02.522Z,24.45
2022-10-22T19:31:45.907Z,23.25
2022-10-22T19:34:46.573Z,24.77
2022-10-22T19:40:47.168Z,22.00
2022-10-22T19:43:47.796Z,20.42
2022-10-22T19:46:57.694Z,21.50
2022-10-22T19:52:48.514Z,19.13
2022-10-22T19:55:32.505Z,18.95
2022-10-22T19:58:20.904Z,17.88
2022-10-22T20:01:18.820Z,16.95
2022-10-22T20:04:38.573Z,17.90
2022-10-22T20:07:29.654Z,22.00
2022-10-22T20:13:27.233Z,19.05
2022-10-22T20:16:14.682Z,17.80
2022-10-22T20:18:57.322Z,16.98
2022-10-22T20:21:49.439Z,15.65
2022-10-22T20:24:50.704Z,16.23
2022-10-22T20:27:48.992Z,20.90
2022-10-22T20:30:21.710Z,18.27
2022-10-22T20:32:52.024Z,20.20
2022-10-22T20:35:22.225Z,20.35
2022-10-22T20:37:52.534Z,17.77
2022-10-22T20:40:27.880Z,20.48
2022-10-22T20:42:59.362Z,18.30
2022-10-22T20:45:30.849Z,17.55
2022-10-22T20:48:03.069Z,19.00
2022-10-22T20:50:33.648Z,16.02
2022-10-22T20:53:04.964Z,18.60
2022-10-22T20:55:38.553Z,16.70
2022-10-22T20:58:10.023Z,19.42
2022-10-22T21:00:41.422Z,19.52
2022-10-22T21:05:45.123Z,17.23
2022-10-22T21:08:17.822Z,17.92
2022-10-22T21:10:49.786Z,14.63
2022-10-22T21:13:19.923Z,17.92
2022-10-22T21:15:50.115Z,17.23
2022-10-22T21:18:20.271Z,19.70
2022-10-22T21:20:51.062Z,20.63
2022-10-22T21:23:23.232Z,17.90
2022-10-22T21:26:01.827Z,18.38
2022-10-22T21:28:46.904Z,18.70
2022-10-22T21:31:35.447Z,16.77
2022-10-22T21:34:41.793Z,17.73
2022-10-22T21:37:21.222Z,18.17
2022-10-22T21:40:19.455Z,16.20
2022-10-22T21:43:15.854Z,18.25
2022-10-22T21:45:52.912Z,16.90
2022-10-22T21:48:22.962Z,15.80
2022-10-22T21:50:54.133Z,16.20
2022-10-22T21:53:25.070Z,16.23
2022-10-22T21:55:55.261Z,16.02
2022-10-22T21:58:26.672Z,17.70
2022-10-22T22:00:58.648Z,14.60
2022-10-22T22:03:29.214Z,14.82
2022-10-22T22:06:00.673Z,17.20
2022-10-22T22:08:31.632Z,18.10
2022-10-22T22:11:06.033Z,13.80
2022-10-22T22:13:38.032Z,15.02
2022-10-22T22:16:11.322Z,13.50
2022-10-22T22:18:42.182Z,14.32
2022-10-22T22:21:14.896Z,18.75
2022-10-22T22:23:46.433Z,14.18
2022-10-22T22:26:19.341Z,17.65
2022-10-22T22:28:50.735Z,13.60
2022-10-22T22:31:24.353Z,12.95
2022-10-22T22:33:59.332Z,14.18
2022-10-22T22:36:30.090Z,19.70
2022-10-22T22:39:00.222Z,15.97
2022-10-22T22:41:30.633Z,14.68
2022-10-22T22:44:02.372Z,13.52
2022-10-22T22:46:33.341Z,17.98
2022-10-22T22:49:03.901Z,18.13
2022-10-22T22:51:34.381Z,16.70
2022-10-22T22:54:04.875Z,17.77
2022-10-22T22:56:35.992Z,15.77
2022-10-22T22:59:07.793Z,19.50
2022-10-22T23:01:39.945Z,14.63
2022-10-22T23:04:13.995Z,16.42
2022-10-22T23:06:44.761Z,14.82
2022-10-22T23:09:16.883Z,15.87
2022-10-22T23:11:48.208Z,16.92
2022-10-22T23:14:21.333Z,15.52
2022-10-22T23:16:52.996Z,15.00
2022-10-22T23:19:24.450Z,13.90
2022-10-22T23:21:56.711Z,15.77
2022-10-22T23:24:29.452Z,14.18
2022-10-22T23:27:04.124Z,15.30
2022-10-22T23:29:37.310Z,19.70
2022-10-22T23:32:09.940Z,13.48
2022-10-22T23:34:40.551Z,14.05
2022-10-22T23:37:13.530Z,13.25
2022-10-22T23:39:43.630Z,18.38
2022-10-22T23:42:13.810Z,16.60
2022-10-22T23:44:45.251Z,12.77
2022-10-22T23:47:15.401Z,10.80
2022-10-22T23:49:45.361Z,14.13
2022-10-22T23:52:15.613Z,14.80
2022-10-22T23:54:45.811Z,13.43
2022-10-22T23:57:16.090Z,16.50
2022-10-22T23:59:47.461Z,12.70
